Time;durP1;ratioP1;P1;durP2;ratioP2;P2;SDS_P1;SDS_P2;PMS_P1;PMS_P2;Temp;Humidity;BMP_temperature;BMP_pressure;BME280_temperature;BME280_humidity;BME280_pressure;Samples;Min_cycle;Max_cycle;Signal;HPM_P1;HPM_P2
2022/04/26 03:36:37;;;;;;;;;;;;;;;11.38;61.41;99545.47;4379239;32;33496;-77
2022/04/26 03:39:05;;;;;;;;;;;;;;;11.38;61.45;99556.97;4396111;32;34493;-74
2022/04/26 03:41:32;;;;;;;;;;;;;;;11.28;61.62;99558.84;4369520;32;880053;-77
2022/04/26 03:44:00;;;;;;;;;;;;;;;11.44;61.04;99566.97;4404352;32;34452;-78
2022/04/26 03:46:28;;;;;;;;;;;;;;;11.34;61.05;99557.44;4416599;32;35864;-76
2022/04/26 03:48:55;;;;;;;;;;;;;;;11.24;61.63;99564.63;4417122;32;34162;-77
2022/04/26 03:51:23;;;;;;;;;;;;;;;11.14;62.11;99565.72;4415176;32;33864;-79
2022/04/26 03:53:50;;;;;;;;;;;;;;;10.80;63.63;99575.38;4429167;32;34553;-76
2022/04/26 03:56:18;;;;;;;;;;;;;;;10.92;63.42;99579.47;4414052;32;34596;-77
2022/04/26 03:58:45;;;;;;;;;;;;;;;11.04;62.95;99586.28;4429212;32;34272;-77
2022/04/26 04:01:12;;;;;;;;;;;;;;;10.94;63.09;99594.31;4430264;32;33316;-77
2022/04/26 04:03:40;;;;;;;;;;;;;;;10.98;63.24;99594.84;4427893;32;34298;-78
2022/04/26 04:06:07;;;;;;;;;;;;;;;10.45;64.78;99591.28;4435431;32;35748;-77
2022/04/26 04:08:34;;;;;;;;;;;;;;;10.40;65.46;99598.88;4429153;32;34711;-77
2022/04/26 04:11:02;;;;;;;;;;;;;;;10.14;66.63;99608.50;4432435;32;33934;-77
2022/04/26 04:13:33;;;;;;;;;;;;;;;10.31;66.21;99611.22;4424894;32;33402;-78
2022/04/26 04:16:00;;;;;;;;;;;;;;;10.51;65.76;99604.84;4428978;32;35943;-78
2022/04/26 04:21:13;;;;;;;;;;;;;;;10.52;65.91;99606.50;4433134;32;32594;-77
2022/04/26 04:23:41;;;;;;;;;;;;;;;10.63;65.43;99603.66;4418983;32;34159;-81
2022/04/26 04:26:11;;;;;;;;;;;;;;;10.55;66.05;99610.69;4426034;32;33404;-77
2022/04/26 04:28:38;;;;;;;;;;;;;;;10.68;65.73;99611.19;4423676;32;35058;-77
2022/04/26 04:31:06;;;;;;;;;;;;;;;10.85;64.94;99624.50;4410672;32;33605;-77
2022/04/26 04:33:33;;;;;;;;;;;;;;;11.07;64.16;99616.09;4413750;32;33363;-82
2022/04/26 04:36:03;;;;;;;;;;;;;;;11.15;63.67;99618.81;4423292;32;34473;-77
2022/04/26 04:38:31;;;;;;;;;;;;;;;11.17;63.66;99624.00;4436346;32;35054;-77
2022/04/26 04:40:59;;;;;;;;;;;;;;;11.07;64.08;99625.91;4409636;32;35032;-78
2022/04/26 04:43:26;;;;;;;;;;;;;;;10.84;65.16;99636.13;4423069;32;34525;-77
2022/04/26 04:45:54;;;;;;;;;;;;;;;11.17;64.27;99634.66;4434138;32;35840;-78
2022/04/26 04:48:22;;;;;;;;;;;;;;;11.17;64.30;99639.97;4409142;32;34248;-83
2022/04/26 04:51:25;;;;;;;;;;;;;;;11.04;64.66;99644.84;4429234;32;32280;-80
2022/04/26 04:57:37;;;;;;;;;;;;;;;10.80;65.89;99647.22;4388094;32;37248;-78
2022/04/26 05:06:33;;;;;;;;;;;;;;;10.90;65.58;99662.16;4375651;32;32467;-78
2022/04/26 05:09:51;;;;;;;;;;;;;;;;;;;;;
2022/04/26 05:12:46;;;;;;;;;;;;;;;10.95;65.93;99657.22;4377226;32;34072;-79
2022/04/26 05:15:30;;;;;;;;;;;;;;;11.14;65.44;99672.22;4390265;32;33149;-80
2022/04/26 05:21:52;;;;;;;;;;;;;;;11.65;63.28;99663.41;4367346;32;35636;-76
2022/04/26 05:24:53;;;;;;;;;;;;;;;11.45;64.14;99677.88;4378993;32;34477;-76
2022/04/26 05:28:00;;;;;;;;;;;;;;;11.55;63.84;99680.47;4383770;32;32486;-81
2022/04/26 05:31:24;;;;;;;;;;;;;;;11.48;64.07;99680.25;4376074;32;33498;-76
2022/04/26 05:34:33;;;;;;;;;;;;;;;11.44;64.87;99680.69;4384748;32;35700;-76
2022/04/26 05:38:06;;;;;;;;;;;;;;;11.61;64.07;99686.03;4437432;32;35099;-76
2022/04/26 05:43:45;;;;;;;;;;;;;;;12.26;62.86;99687.34;4425169;32;33950;-76
2022/04/26 05:46:58;;;;;;;;;;;;;;;12.51;61.35;99679.34;4422721;32;35624;-76
2022/04/26 05:52:48;;;;;;;;;;;;;;;12.71;61.08;99687.94;4390311;32;33777;-76
2022/04/26 05:56:08;;;;;;;;;;;;;;;12.73;60.52;99688.59;4390237;32;33636;-78
2022/04/26 05:58:49;;;;;;;;;;;;;;;12.97;60.09;99689.59;4390084;32;35129;-76
2022/04/26 06:02:05;;;;;;;;;;;;;;;12.94;59.63;99692.56;4380093;32;35351;-76
2022/04/26 06:17:21;;;;;;;;;;;;;;;13.56;57.23;99694.72;4377572;32;31539;-76
2022/04/26 06:20:29;;;;;;;;;;;;;;;13.20;58.78;99704.00;4368530;32;32970;-77
2022/04/26 06:30:08;;;;;;;;;;;;;;;13.66;57.28;99695.41;4405059;32;33454;-79
2022/04/26 06:35:52;;;;;;;;;;;;;;;;;;;;;
2022/04/26 06:38:57;;;;;;;;;;;;;;;;;;;;;
2022/04/26 06:48:10;;;;;;;;;;;;;;;14.77;53.35;99685.56;4335729;33;35936;-77
2022/04/26 06:51:51;;;;;;;;;;;;;;;14.95;53.61;99680.78;4354974;32;34362;-77
2022/04/26 06:54:57;;;;;;;;;;;;;;;;;;;;;
2022/04/26 06:57:53;;;;;;;;;;;;;;;15.11;54.08;99680.72;4404497;32;33454;-76
2022/04/26 07:00:51;;;;;;;;;;;;;;;;;;;;;
2022/04/26 07:03:47;;;;;;;;;;;;;;;14.76;53.76;99694.59;4392015;32;33036;-79
2022/04/26 07:12:58;;;;;;;;;;;;;;;15.33;52.13;99704.06;4438321;32;35312;-79
2022/04/26 07:16:12;;;;;;;;;;;;;;;15.44;51.19;99700.97;4420849;32;34745;-77
2022/04/26 07:19:17;;;;;;;;;;;;;;;15.36;51.79;99693.81;4427156;32;33158;-77
2022/04/26 07:25:20;;;;;;;;;;;;;;;15.63;52.42;99703.19;4438111;32;35306;-77
2022/04/26 07:40:58;;;;;;;;;;;;;;;15.43;50.29;99716.25;4423248;32;32790;-77
2022/04/26 07:56:39;;;;;;;;;;;;;;;;;;;;;
2022/04/26 07:59:45;;;;;;;;;;;;;;;16.45;48.37;99730.03;4437292;32;33717;-76
2022/04/26 08:02:50;;;;;;;;;;;;;;;16.39;49.31;99730.75;4437089;32;35527;-77
2022/04/26 08:06:13;;;;;;;;;;;;;;;16.72;47.70;99735.59;4376737;32;32223;-80
2022/04/26 08:12:03;;;;;;;;;;;;;;;16.37;47.22;99732.78;4358506;32;33607;-79
2022/04/26 08:15:18;;;;;;;;;;;;;;;;;;;;;
2022/04/26 08:18:58;;;;;;;;;;;;;;;16.40;47.07;99732.41;4359323;32;34874;-77
2022/04/26 08:34:03;;;;;;;;;;;;;;;17.62;43.62;99732.47;4350505;32;33107;-76
2022/04/26 08:40:48;;;;;;;;;;;;;;;17.04;43.17;99735.25;4352026;32;33789;-77
2022/04/26 08:43:34;;;;;;;;;;;;;;;17.35;39.02;99743.09;4365931;32;35345;-77
2022/04/26 08:52:34;;;;;;;;;;;;;;;17.59;39.40;99739.06;4374078;32;34799;-78
2022/04/26 08:56:07;;;;;;;;;;;;;;;17.77;39.30;99744.03;4358807;32;34463;-76
2022/04/26 08:59:19;;;;;;;;;;;;;;;17.65;39.41;99746.38;4326859;32;33078;-77
2022/04/26 09:05:27;;;;;;;;;;;;;;;18.05;39.90;99748.44;4403945;32;34861;-77
2022/04/26 09:09:38;;;;;;;;;;;;;;;18.08;39.85;99748.06;4403841;32;35463;-77
2022/04/26 09:14:55;;;;;;;;;;;;;;;17.94;39.71;99737.38;4407007;32;34047;-76
2022/04/26 09:17:52;;;;;;;;;;;;;;;18.13;39.51;99752.88;4436655;32;36082;-77
2022/04/26 09:21:29;;;;;;;;;;;;;;;18.41;38.53;99743.81;4416965;32;35045;-76
2022/04/26 09:27:14;;;;;;;;;;;;;;;18.33;37.47;99751.22;4375912;32;32550;-76
2022/04/26 09:37:11;;;;;;;;;;;;;;;18.42;35.20;99758.13;4358771;32;32990;-79
2022/04/26 09:44:11;;;;;;;;;;;;;;;18.86;35.78;99742.47;4316871;33;33425;-76
2022/04/26 09:47:20;;;;;;;;;;;;;;;18.65;35.48;99742.53;4307067;33;33289;-76
2022/04/26 09:50:34;;;;;;;;;;;;;;;;;;;;;
2022/04/26 10:03:54;;;;;;;;;;;;;;;19.44;36.54;99737.41;4276164;33;31765;-77
2022/04/26 10:06:37;;;;;;;;;;;;;;;20.21;36.66;99735.13;4271495;33;33439;-81
2022/04/26 10:22:30;;;;;;;;;;;;;;;21.54;34.26;99719.06;4313696;33;35750;-77
2022/04/26 10:25:27;;;;;;;;;;;;;;;21.10;36.94;99713.59;4328568;33;35393;-77
2022/04/26 10:35:26;;;;;;;;;;;;;;;20.79;35.15;99702.66;4301400;33;34640;-76
2022/04/26 10:38:09;;;;;;;;;;;;;;;21.14;36.10;99704.84;4293046;33;35108;-82
2022/04/26 10:44:39;;;;;;;;;;;;;;;21.51;34.95;99706.78;4348487;32;34289;-80
2022/04/26 10:47:32;;;;;;;;;;;;;;;21.36;33.79;99703.50;4360029;32;35733;-77
2022/04/26 10:50:44;;;;;;;;;;;;;;;22.06;35.28;99692.50;4359376;32;34847;-77
2022/04/26 10:56:56;;;;;;;;;;;;;;;;;;;;;
2022/04/26 11:13:42;;;;;;;;;;;;;;;25.11;31.09;99687.53;4315478;33;36105;-80
2022/04/26 11:29:00;;;;;;;;;;;;;;;28.28;26.08;99681.00;4295362;33;33268;-77
2022/04/26 11:38:16;;;;;;;;;;;;;;;25.65;26.74;99681.56;4307806;33;36078;-79
2022/04/26 11:41:57;;;;;;;;;;;;;;;25.19;27.66;99685.25;4305004;33;36326;-78
2022/04/26 11:53:48;;;;;;;;;;;;;;;25.80;28.14;99682.69;4300490;33;35454;-78
2022/04/26 11:57:39;;;;;;;;;;;;;;;25.71;28.18;99680.59;4314649;33;33452;-78
2022/04/26 12:09:03;;;;;;;;;;;;;;;25.65;31.23;99668.78;4300769;33;32995;-77
2022/04/26 12:15:58;;;;;;;;;;;;;;;25.99;27.08;99666.97;4344941;33;33516;-78
2022/04/26 12:22:34;;;;;;;;;;;;;;;25.06;28.64;99663.75;4380960;32;33144;-80
2022/04/26 12:25:43;;;;;;;;;;;;;;;25.35;28.14;99656.47;4381135;32;34431;-77
2022/04/26 12:38:55;;;;;;;;;;;;;;;24.13;30.78;99645.78;4359074;32;34352;-80
2022/04/26 12:41:21;;;;;;;;;;;;;;;23.50;30.86;99645.72;4356261;32;35207;-78
2022/04/26 12:54:21;;;;;;;;;;;;;;;23.89;30.54;99635.94;4353287;32;35340;-82
2022/04/26 13:04:21;;;;;;;;;;;;;;;;;;;;;
2022/04/26 13:10:29;;;;;;;;;;;;;;;;;;;;;
2022/04/26 13:18:03;;;;;;;;;;;;;;;23.62;29.56;99631.12;4321371;32;34508;-82
2022/04/26 13:21:31;;;;;;;;;;;;;;;23.34;29.97;99620.03;4336019;32;34507;-81
2022/04/26 13:30:57;;;;;;;;;;;;;;;23.47;29.36;99627.13;4316077;33;34647;-80
2022/04/26 13:33:58;;;;;;;;;;;;;;;23.68;29.79;99626.63;4363600;32;35609;-81
2022/04/26 13:36:54;;;;;;;;;;;;;;;23.99;30.27;99617.16;4362233;32;34609;-81
2022/04/26 13:39:51;;;;;;;;;;;;;;;23.78;29.96;99622.28;4367448;32;32956;-83
2022/04/26 13:42:56;;;;;;;;;;;;;;;23.98;30.08;99620.13;4362496;32;32883;-81
2022/04/26 13:49:57;;;;;;;;;;;;;;;;;;;;;
2022/04/26 13:52:39;;;;;;;;;;;;;;;23.53;31.92;99615.38;4335558;33;32855;-80
2022/04/26 13:56:09;;;;;;;;;;;;;;;23.29;31.57;99616.34;4342595;32;35849;-81
2022/04/26 14:06:02;;;;;;;;;;;;;;;23.05;31.41;99615.38;4378089;32;33273;-84
2022/04/26 14:23:53;;;;;;;;;;;;;;;;;;;;;
2022/04/26 14:27:02;;;;;;;;;;;;;;;23.45;31.28;99610.25;4389493;32;34990;-82
2022/04/26 14:33:43;;;;;;;;;;;;;;;23.22;31.54;99608.28;4384535;32;35041;-79
2022/04/26 14:36:32;;;;;;;;;;;;;;;23.38;31.31;99613.06;4390938;32;34974;-80
2022/04/26 14:42:54;;;;;;;;;;;;;;;23.78;31.88;99606.81;4362591;32;33017;-80
2022/04/26 14:52:01;;;;;;;;;;;;;;;25.70;27.23;99608.09;4353088;32;33527;-79
2022/04/26 15:01:07;;;;;;;;;;;;;;;26.99;26.68;99586.66;4358988;32;35934;-80
2022/04/26 15:10:18;;;;;;;;;;;;;;;26.69;26.78;99587.06;4327911;33;33015;-84
2022/04/26 15:24:05;;;;;;;;;;;;;;;27.60;26.37;99579.72;4285403;33;34501;-81
2022/04/26 15:30:45;;;;;;;;;;;;;;;;;;;;;
2022/04/26 15:37:39;;;;;;;;;;;;;;;;;;;;;
2022/04/26 15:41:07;;;;;;;;;;;;;;;26.73;25.86;99560.09;4331498;33;34951;-82
2022/04/26 15:46:56;;;;;;;;;;;;;;;25.57;27.71;99567.53;4335611;32;32262;-82
2022/04/26 15:50:41;;;;;;;;;;;;;;;25.95;28.04;99565.75;4385084;32;33608;-81
2022/04/26 16:03:56;;;;;;;;;;;;;;;25.43;27.80;99580.66;4377612;32;33930;-81
2022/04/26 16:07:24;;;;;;;;;;;;;;;24.84;28.73;99574.81;4384504;32;35266;-81
2022/04/26 16:23:05;;;;;;;;;;;;;;;24.28;29.50;99564.56;4385705;32;34610;-80
2022/04/26 16:29:27;;;;;;;;;;;;;;;;;;;;;
2022/04/26 16:38:42;;;;;;;;;;;;;;;24.05;29.75;99570.03;4377505;32;32470;-84
2022/04/26 16:48:46;;;;;;;;;;;;;;;23.82;30.28;99571.88;4383168;32;35090;-81
2022/04/26 16:51:30;;;;;;;;;;;;;;;;;;;;;
2022/04/26 16:58:04;;;;;;;;;;;;;;;23.66;30.77;99577.97;4336275;32;35377;-79
2022/04/26 17:04:31;;;;;;;;;;;;;;;23.48;30.76;99579.94;4386216;32;31649;-82
2022/04/26 17:07:41;;;;;;;;;;;;;;;;;;;;;
2022/04/26 17:10:54;;;;;;;;;;;;;;;23.25;31.03;99580.69;4420957;32;34134;-82
2022/04/26 17:14:03;;;;;;;;;;;;;;;;;;;;;
2022/04/26 17:17:53;;;;;;;;;;;;;;;23.13;31.07;99581.66;4427586;32;34741;-81
2022/04/26 17:23:25;;;;;;;;;;;;;;;22.93;32.87;99583.81;4436937;32;34198;-79
2022/04/26 17:26:35;;;;;;;;;;;;;;;22.86;33.87;99591.19;4428432;32;34293;-79
2022/04/26 17:36:41;;;;;;;;;;;;;;;22.61;32.22;99598.59;4382989;32;34694;-79
2022/04/26 17:39:10;;;;;;;;;;;;;;;22.46;33.49;99593.53;4392109;32;35054;-79
2022/04/26 17:41:56;;;;;;;;;;;;;;;22.40;33.99;99591.75;4389090;32;32556;-79
2022/04/26 17:57:37;;;;;;;;;;;;;;;21.33;37.29;99616.53;4393255;32;34124;-81
2022/04/26 18:01:36;;;;;;;;;;;;;;;;;;;;;
2022/04/26 18:04:49;;;;;;;;;;;;;;;21.11;38.33;99615.19;4382775;32;34623;-78
2022/04/26 18:14:15;;;;;;;;;;;;;;;21.13;37.10;99619.34;4399812;32;33558;-78
2022/04/26 18:17:23;;;;;;;;;;;;;;;21.08;37.07;99619.13;4414209;32;35080;-80
2022/04/26 18:20:19;;;;;;;;;;;;;;;21.02;37.42;99627.28;4392209;32;32576;-82
2022/04/26 18:32:45;;;;;;;;;;;;;;;20.75;37.69;99634.66;4345758;33;31596;-80
2022/04/26 18:35:55;;;;;;;;;;;;;;;20.73;37.83;99638.59;4326729;33;33899;-80
2022/04/26 18:42:14;;;;;;;;;;;;;;;20.62;37.96;99639.25;4333298;33;35260;-80
2022/04/26 18:48:44;;;;;;;;;;;;;;;19.92;40.06;99646.38;4347241;33;33679;-80
2022/04/26 18:51:32;;;;;;;;;;;;;;;19.99;39.48;99652.63;4341201;33;34328;-82
2022/04/26 18:57:46;;;;;;;;;;;;;;;19.70;40.32;99658.37;4337122;33;33323;-80
2022/04/26 19:01:00;;;;;;;;;;;;;;;;;;;;;
2022/04/26 19:07:37;;;;;;;;;;;;;;;19.92;39.35;99663.38;4344476;32;34637;-80
2022/04/26 19:19:57;;;;;;;;;;;;;;;19.18;40.79;99656.38;4422571;32;33267;-81
2022/04/26 19:22:41;;;;;;;;;;;;;;;19.40;41.10;99657.06;4418610;32;31934;-81
2022/04/26 19:26:30;;;;;;;;;;;;;;;19.31;41.60;99666.37;4419146;32;34904;-80
2022/04/26 19:28:59;;;;;;;;;;;;;;;19.24;41.61;99673.66;4413869;32;35280;-80
2022/04/26 19:38:08;;;;;;;;;;;;;;;19.03;41.81;99668.31;4362386;32;34891;-78
2022/04/26 19:41:08;;;;;;;;;;;;;;;;;;;;;
2022/04/26 19:47:19;;;;;;;;;;;;;;;19.02;42.01;99670.22;4345854;33;33344;-80
2022/04/26 19:56:44;;;;;;;;;;;;;;;;;;;;;
2022/04/26 20:03:55;;;;;;;;;;;;;;;18.67;42.97;99676.66;4365606;32;34128;-79
2022/04/26 20:06:19;;;;;;;;;;;;;;;;;;;;;
2022/04/26 20:09:12;;;;;;;;;;;;;;;18.68;42.75;99683.69;4346934;32;34636;-80
2022/04/26 20:12:08;;;;;;;;;;;;;;;18.66;42.62;99679.53;4349950;32;33470;-79
2022/04/26 20:15:18;;;;;;;;;;;;;;;18.56;43.26;99679.06;4371996;32;34106;-81
2022/04/26 20:21:13;;;;;;;;;;;;;;;18.41;44.10;99683.75;4428343;26;34001;-90
2022/04/26 20:23:41;;;;;;;;;;;;;;;18.53;43.80;99677.59;4390691;32;32449;-91
2022/04/26 20:31:41;;;;;;;;;;;;;;;18.27;44.84;99687.31;4401682;32;33902;-93
2022/04/26 20:34:09;;;;;;;;;;;;;;;18.36;44.59;99687.03;4391039;32;31571;-91
2022/04/26 20:36:37;;;;;;;;;;;;;;;18.33;44.44;99691.97;4406963;32;33952;-85
2022/04/26 20:39:05;;;;;;;;;;;;;;;18.32;44.38;99691.13;4392303;32;34811;-89
2022/04/26 20:41:33;;;;;;;;;;;;;;;18.29;44.52;99686.13;4406932;32;34668;-93
2022/04/26 20:44:02;;;;;;;;;;;;;;;18.25;44.56;99694.78;4388280;32;33932;-84
2022/04/26 20:46:29;;;;;;;;;;;;;;;18.26;44.54;99704.50;4413264;32;32910;-88
2022/04/26 20:48:57;;;;;;;;;;;;;;;18.26;44.66;99699.97;4412418;32;35130;-86
2022/04/26 20:51:24;;;;;;;;;;;;;;;18.24;44.98;99698.50;4422497;32;34281;-86
2022/04/26 20:53:52;;;;;;;;;;;;;;;18.19;45.04;99700.94;4392330;32;32970;-89
2022/04/26 20:56:21;;;;;;;;;;;;;;;18.19;44.90;99699.06;4406259;32;32608;-92
2022/04/26 20:58:48;;;;;;;;;;;;;;;18.13;44.94;99699.03;4399423;32;33462;-90
2022/04/26 21:01:16;;;;;;;;;;;;;;;18.15;44.87;99697.78;4404831;32;34623;-87
2022/04/26 21:03:44;;;;;;;;;;;;;;;18.14;44.81;99698.81;4399163;32;31507;-88
2022/04/26 21:06:11;;;;;;;;;;;;;;;18.13;44.76;99702.53;4378883;32;32344;-89
2022/04/26 21:08:40;;;;;;;;;;;;;;;18.10;45.07;99699.41;4404880;32;33522;-89
2022/04/26 21:11:08;;;;;;;;;;;;;;;18.11;45.02;99707.28;4392886;32;34260;-89
2022/04/26 21:13:36;;;;;;;;;;;;;;;18.09;45.04;99700.44;4411498;32;33336;-89
2022/04/26 21:16:03;;;;;;;;;;;;;;;18.05;45.23;99701.84;4387128;32;33877;-92
2022/04/26 21:18:31;;;;;;;;;;;;;;;18.02;45.33;99705.75;4392067;32;34697;-87
2022/04/26 21:21:00;;;;;;;;;;;;;;;17.99;45.38;99706.16;4410326;32;35170;-90
2022/04/26 21:23:27;;;;;;;;;;;;;;;17.95;45.33;99710.25;4396406;32;31470;-91
2022/04/26 21:25:56;;;;;;;;;;;;;;;17.95;45.37;99710.25;4382539;32;32784;-91
2022/04/26 21:28:23;;;;;;;;;;;;;;;17.95;45.75;99712.94;4388717;32;35402;-94
2022/04/26 21:30:51;;;;;;;;;;;;;;;17.92;45.87;99716.03;4413127;32;34463;-90
2022/04/26 21:33:20;;;;;;;;;;;;;;;17.86;46.06;99713.28;4407297;32;32636;-91
2022/04/26 21:36:05;;;;;;;;;;;;;;;17.81;46.29;99705.78;4391878;32;34839;-91
2022/04/26 21:38:34;;;;;;;;;;;;;;;17.76;46.42;99710.06;4418214;32;35956;-88
2022/04/26 21:41:02;;;;;;;;;;;;;;;17.69;46.47;99714.53;4407787;32;34948;-87
2022/04/26 21:43:32;;;;;;;;;;;;;;;17.77;46.26;99706.34;4397843;32;33125;-88
2022/04/26 21:46:00;;;;;;;;;;;;;;;17.73;46.39;99718.50;4399642;32;33711;-89
2022/04/26 21:48:27;;;;;;;;;;;;;;;17.71;46.43;99702.56;4423552;32;33639;-84
2022/04/26 21:53:41;;;;;;;;;;;;;;;17.70;46.61;99705.44;4415412;32;33388;-89
2022/04/26 21:56:08;;;;;;;;;;;;;;;17.54;47.12;99701.16;4395080;32;34579;-89
2022/04/26 21:58:36;;;;;;;;;;;;;;;17.32;47.94;99708.50;4409223;32;35893;-89
2022/04/26 22:01:04;;;;;;;;;;;;;;;17.52;47.10;99711.28;4412132;32;33547;-88
2022/04/26 22:03:31;;;;;;;;;;;;;;;17.56;46.86;99717.94;4392146;32;31990;-89
2022/04/26 22:05:59;;;;;;;;;;;;;;;17.48;46.96;99714.53;4397931;32;33333;-84
2022/04/26 22:08:27;;;;;;;;;;;;;;;17.13;47.97;99718.00;4395727;32;34971;-89
2022/04/26 22:10:55;;;;;;;;;;;;;;;17.31;47.44;99713.06;4403036;32;34653;-89
2022/04/26 22:13:23;;;;;;;;;;;;;;;17.42;47.06;99714.44;4407666;32;33667;-91
2022/04/26 22:15:51;;;;;;;;;;;;;;;17.42;46.97;99714.44;4408550;32;33910;-92
2022/04/26 22:18:19;;;;;;;;;;;;;;;17.31;47.26;99715.75;4394781;32;35318;-88
2022/04/26 22:20:46;;;;;;;;;;;;;;;17.35;47.02;99714.31;4406886;32;34009;-91
2022/04/26 22:23:14;;;;;;;;;;;;;;;17.41;46.88;99720.84;4376082;32;33041;-89
2022/04/26 22:25:42;;;;;;;;;;;;;;;17.43;46.90;99721.50;4422627;32;34446;-88
2022/04/26 22:28:10;;;;;;;;;;;;;;;17.42;46.85;99727.88;4411739;32;33635;-90
2022/04/26 22:30:37;;;;;;;;;;;;;;;17.38;46.95;99723.91;4412035;32;34015;-85
2022/04/26 22:33:05;;;;;;;;;;;;;;;17.34;47.03;99728.81;4412837;32;32583;-88
2022/04/26 22:35:33;;;;;;;;;;;;;;;17.35;46.99;99721.59;4413041;32;33910;-89
2022/04/26 22:38:00;;;;;;;;;;;;;;;17.33;47.04;99728.97;4387723;32;34846;-90
2022/04/26 22:40:28;;;;;;;;;;;;;;;17.33;47.06;99728.97;4387773;32;35262;-90
2022/04/26 22:42:56;;;;;;;;;;;;;;;17.31;47.23;99729.19;4388248;32;32476;-91
2022/04/26 22:45:23;;;;;;;;;;;;;;;17.27;47.31;99733.25;4411293;32;33591;-90
2022/04/26 22:47:51;;;;;;;;;;;;;;;17.25;47.48;99723.75;4414632;32;36093;-86
2022/04/26 22:50:19;;;;;;;;;;;;;;;17.18;47.96;99734.37;4394687;32;33205;-90
2022/04/26 22:52:46;;;;;;;;;;;;;;;17.22;47.83;99730.31;4409996;32;32432;-91
2022/04/26 22:55:15;;;;;;;;;;;;;;;17.26;47.88;99733.47;4390956;32;33732;-89
2022/04/26 22:57:42;;;;;;;;;;;;;;;17.22;48.11;99730.31;4411089;32;33573;-88
2022/04/26 23:00:10;;;;;;;;;;;;;;;17.17;48.26;99731.91;4407396;32;34808;-91
2022/04/26 23:02:39;;;;;;;;;;;;;;;17.12;48.40;99732.47;4413361;32;33465;-88
2022/04/26 23:05:07;;;;;;;;;;;;;;;17.09;48.44;99723.94;4427691;32;34012;-86
2022/04/26 23:07:37;;;;;;;;;;;;;;;17.06;48.64;99718.94;4395825;32;35140;-91
2022/04/26 23:10:06;;;;;;;;;;;;;;;17.00;48.87;99722.38;4408885;32;34298;-88
2022/04/26 23:12:34;;;;;;;;;;;;;;;16.94;49.17;99732.00;4422295;32;34047;-92
2022/04/26 23:15:02;;;;;;;;;;;;;;;16.90;49.23;99729.88;4388888;32;33729;-90
2022/04/26 23:17:30;;;;;;;;;;;;;;;16.92;49.19;99735.91;4402511;32;35302;-90
2022/04/26 23:19:57;;;;;;;;;;;;;;;16.96;49.00;99735.34;4407881;32;33818;-92
2022/04/26 23:22:25;;;;;;;;;;;;;;;16.93;49.12;99737.56;4400774;32;32854;-91
2022/04/26 23:24:52;;;;;;;;;;;;;;;16.88;49.28;99727.37;4400719;32;33309;-89
2022/04/26 23:27:21;;;;;;;;;;;;;;;16.88;49.28;99734.63;4400264;32;35173;-92
2022/04/26 23:29:49;;;;;;;;;;;;;;;16.85;49.36;99735.81;4399477;32;34368;-85
2022/04/26 23:32:17;;;;;;;;;;;;;;;16.81;49.41;99731.81;4412873;32;32974;-90
2022/04/26 23:37:31;;;;;;;;;;;;;;;16.77;49.48;99735.91;4413664;32;34469;-91
2022/04/26 23:39:59;;;;;;;;;;;;;;;16.76;49.47;99734.22;4398898;32;33944;-91
2022/04/26 23:42:27;;;;;;;;;;;;;;;16.68;49.66;99731.63;4387567;32;33055;-92
2022/04/26 23:44:55;;;;;;;;;;;;;;;16.68;49.62;99730.78;4387784;32;34044;-90
2022/04/26 23:47:22;;;;;;;;;;;;;;;16.67;49.56;99724.59;4400007;32;35046;-90
2022/04/26 23:49:50;;;;;;;;;;;;;;;16.70;49.51;99726.91;4399538;32;33514;-91
2022/04/26 23:55:04;;;;;;;;;;;;;;;16.42;50.43;99728.53;4414282;32;32860;-92
2022/04/26 23:57:33;;;;;;;;;;;;;;;16.04;52.09;99753.69;4400910;32;35124;-92
